Time;durP1;ratioP1;P1;durP2;ratioP2;P2;SDS_P1;SDS_P2;PMS_P1;PMS_P2;Temp;Humidity;BMP_temperature;BMP_pressure;BME280_temperature;BME280_humidity;BME280_pressure;Samples;Min_cycle;Max_cycle;Signal;HPM_P1;HPM_P2
2021/10/19 00:01:21;;;;;;;;;19.50;17.25;;;;;17.32;82.21;101748.72;5033032;28;45372;-71
2021/10/19 00:03:48;;;;;;;;;21.75;19.25;;;;;17.35;81.97;101753.88;5014506;28;45782;-71
2021/10/19 00:06:14;;;;;;;;;19.00;18.50;;;;;17.33;82.50;101761.94;5033481;28;46295;-72
2021/10/19 00:08:39;;;;;;;;;22.75;17.75;;;;;17.33;82.48;101761.94;5033358;28;45293;-72
2021/10/19 00:11:05;;;;;;;;;22.75;20.75;;;;;17.35;82.46;101765.34;5033214;28;45821;-71
2021/10/19 00:13:30;;;;;;;;;21.75;17.75;;;;;17.34;82.68;101761.00;5033288;28;45466;-72
2021/10/19 00:15:56;;;;;;;;;23.00;16.75;;;;;17.38;82.34;101759.00;5015758;28;48160;-71
2021/10/19 00:18:21;;;;;;;;;15.00;11.25;;;;;17.40;82.21;101757.13;5032703;28;45266;-71
2021/10/19 00:20:46;;;;;;;;;20.75;19.00;;;;;17.39;82.67;101761.59;5033817;28;45447;-71
2021/10/19 00:23:12;;;;;;;;;18.75;16.75;;;;;17.39;82.35;101760.75;5033741;28;45321;-72
2021/10/19 00:25:37;;;;;;;;;23.50;16.75;;;;;17.41;82.44;101759.69;5032089;28;45384;-71
2021/10/19 00:28:04;;;;;;;;;18.00;15.25;;;;;17.38;82.33;101743.94;5033406;28;45355;-72
2021/10/19 00:30:30;;;;;;;;;20.25;16.75;;;;;17.42;82.48;101740.16;5033574;28;45511;-72
2021/10/19 00:32:56;;;;;;;;;20.50;17.00;;;;;17.39;82.53;101745.66;5032190;28;45498;-71
2021/10/19 00:35:21;;;;;;;;;17.25;14.75;;;;;17.45;82.44;101742.66;5032190;28;46335;-72
2021/10/19 00:37:46;;;;;;;;;17.75;17.00;;;;;17.45;82.24;101740.00;5033460;28;46422;-71
2021/10/19 00:40:12;;;;;;;;;16.75;16.00;;;;;17.46;82.05;101747.00;5015431;28;55326;-72
2021/10/19 00:42:37;;;;;;;;;14.00;14.00;;;;;17.39;82.05;101743.00;5033814;28;45536;-72
2021/10/19 00:45:04;;;;;;;;;16.50;14.50;;;;;17.47;82.64;101762.00;5033005;28;46983;-71
2021/10/19 00:47:29;;;;;;;;;17.25;16.75;;;;;17.49;82.55;101756.63;5032653;28;45237;-71
2021/10/19 00:49:55;;;;;;;;;18.75;17.25;;;;;17.48;83.07;101749.56;5033184;28;45295;-72
2021/10/19 00:52:20;;;;;;;;;17.25;14.75;;;;;17.48;82.43;101755.75;5033607;28;45367;-72
2021/10/19 00:54:47;;;;;;;;;15.25;15.00;;;;;17.48;82.53;101753.09;5033173;28;45506;-72
2021/10/19 00:57:13;;;;;;;;;12.25;11.00;;;;;17.48;82.40;101753.09;5032477;28;45896;-72
2021/10/19 00:59:43;;;;;;;;;17.25;16.00;;;;;17.50;82.29;101752.16;5033512;28;45384;-71
2021/10/19 01:02:09;;;;;;;;;20.00;16.25;;;;;17.49;82.37;101746.00;5031676;28;45531;-72
2021/10/19 01:04:34;;;;;;;;;20.50;16.25;;;;;17.53;82.45;101757.31;5033461;28;45352;-72
2021/10/19 01:07:01;;;;;;;;;16.75;16.75;;;;;17.55;82.30;101760.75;5032203;28;45416;-72
2021/10/19 01:09:26;;;;;;;;;18.00;15.00;;;;;17.54;82.28;101759.00;5034542;28;45357;-71
2021/10/19 01:11:52;;;;;;;;;18.00;15.00;;;;;17.55;82.41;101763.41;5036393;28;46625;-72
2021/10/19 01:14:17;;;;;;;;;17.75;15.00;;;;;17.56;82.27;101762.47;5035621;28;45372;-72
2021/10/19 01:16:42;;;;;;;;;17.00;14.00;;;;;17.56;82.17;101767.78;5036200;28;45392;-72
2021/10/19 01:19:08;;;;;;;;;15.50;13.50;;;;;17.55;82.02;101766.91;5036333;28;49263;-72
2021/10/19 01:21:33;;;;;;;;;16.25;15.50;;;;;17.56;82.26;101778.41;5036515;28;50060;-72
2021/10/19 01:23:58;;;;;;;;;16.50;16.00;;;;;17.52;82.39;101766.22;5036139;28;45436;-72
2021/10/19 01:26:24;;;;;;;;;14.00;13.25;;;;;17.59;82.18;101764.94;5035378;28;51978;-72
2021/10/19 01:28:49;;;;;;;;;13.25;12.00;;;;;17.49;82.21;101748.66;5035664;28;45704;-72
2021/10/19 01:31:15;;;;;;;;;17.25;16.00;;;;;17.59;81.95;101771.13;5035866;28;45624;-72
2021/10/19 01:33:41;;;;;;;;;16.00;14.75;;;;;17.61;82.29;101768.38;5035678;28;46306;-72
2021/10/19 01:36:07;;;;;;;;;16.75;15.00;;;;;17.60;82.19;101764.00;5036032;28;45499;-72
2021/10/19 01:38:34;;;;;;;;;16.50;15.25;;;;;17.61;81.89;101766.56;5051794;28;45384;-72
2021/10/19 01:41:02;;;;;;;;;15.75;12.75;;;;;17.62;82.42;101760.31;5036211;28;45412;-72
2021/10/19 01:43:28;;;;;;;;;16.75;14.00;;;;;17.59;82.02;101746.31;5035638;28;46099;-72
2021/10/19 01:45:59;;;;;;;;;12.25;12.25;;;;;17.60;81.92;101750.72;5035517;28;45923;-72
2021/10/19 01:48:26;;;;;;;;;16.00;15.00;;;;;17.65;82.39;101769.91;5035582;28;45335;-72
2021/10/19 01:50:52;;;;;;;;;16.50;12.75;;;;;17.66;81.80;101761.00;5035345;28;45479;-72
2021/10/19 01:53:20;;;;;;;;;16.00;13.75;;;;;17.62;82.40;101751.47;5017817;28;48466;-71
2021/10/19 01:55:45;;;;;;;;;16.75;12.25;;;;;17.65;81.78;101753.97;5035980;28;45453;-72
2021/10/19 01:58:11;;;;;;;;;18.75;16.25;;;;;17.64;81.75;101750.44;5035914;28;45530;-72
2021/10/19 02:00:38;;;;;;;;;12.25;12.00;;;;;17.65;81.51;101753.97;5035501;28;45532;-72
2021/10/19 02:03:05;;;;;;;;;13.75;11.25;;;;;17.65;81.88;101741.53;5034741;28;46294;-71
2021/10/19 02:05:31;;;;;;;;;18.25;13.75;;;;;17.66;81.61;101753.03;5035399;28;45759;-72
2021/10/19 02:07:58;;;;;;;;;16.25;14.25;;;;;17.66;81.63;101763.66;5036426;28;45523;-72
2021/10/19 02:10:23;;;;;;;;;17.00;12.25;;;;;17.66;81.33;101763.66;5035431;28;45402;-72
2021/10/19 02:12:48;;;;;;;;;13.50;12.00;;;;;17.65;81.55;101762.81;5036136;28;45612;-72
2021/10/19 02:15:14;;;;;;;;;14.75;13.50;;;;;17.64;81.59;101763.72;5034693;28;45669;-72
2021/10/19 02:17:39;;;;;;;;;19.50;15.25;;;;;17.64;81.61;101765.53;5013691;28;45470;-72
2021/10/19 02:20:06;;;;;;;;;16.75;13.75;;;;;17.63;81.66;101759.34;5035767;28;45520;-72
2021/10/19 02:22:32;;;;;;;;;20.25;18.00;;;;;17.62;81.56;101756.78;5019665;28;45368;-72
2021/10/19 02:24:59;;;;;;;;;17.25;16.25;;;;;17.56;81.50;101751.81;5035366;28;45520;-72
2021/10/19 02:27:25;;;;;;;;;18.00;16.00;;;;;17.59;81.36;101749.88;5035420;28;45431;-72
2021/10/19 02:29:50;;;;;;;;;14.00;13.00;;;;;17.59;81.72;101743.66;5034608;28;45642;-72
2021/10/19 02:32:16;;;;;;;;;14.00;12.50;;;;;17.61;81.32;101741.78;5034919;28;46149;-72
2021/10/19 02:34:41;;;;;;;;;15.00;14.00;;;;;17.59;81.32;101738.34;5035083;28;45313;-72
2021/10/19 02:37:06;;;;;;;;;15.75;15.75;;;;;17.56;80.90;101741.19;5035254;28;45408;-72
2021/10/19 02:39:32;;;;;;;;;14.25;12.25;;;;;17.57;81.29;101734.94;5034085;28;45514;-72
2021/10/19 02:41:58;;;;;;;;;17.25;15.75;;;;;17.56;81.17;101735.88;5034679;28;45444;-72
2021/10/19 02:44:23;;;;;;;;;15.75;14.75;;;;;17.50;82.04;101725.59;5034017;28;45491;-72
2021/10/19 02:46:48;;;;;;;;;15.50;13.75;;;;;17.51;81.40;101736.13;5034792;28;45529;-72
2021/10/19 02:49:14;;;;;;;;;16.50;14.00;;;;;17.51;81.25;101738.78;5017791;28;45448;-72
2021/10/19 02:51:39;;;;;;;;;15.25;13.00;;;;;17.51;81.35;101738.78;5035395;28;45360;-72
2021/10/19 02:54:05;;;;;;;;;15.50;13.75;;;;;17.51;81.59;101740.59;5016690;28;45490;-72
2021/10/19 02:56:30;;;;;;;;;18.00;15.00;;;;;17.53;81.37;101746.66;5034525;28;45508;-72
2021/10/19 02:58:55;;;;;;;;;15.00;15.00;;;;;17.53;81.59;101739.56;5034029;28;45400;-72
2021/10/19 03:01:21;;;;;;;;;17.00;14.75;;;;;17.55;81.16;101739.47;5033984;28;45403;-72
2021/10/19 03:03:46;;;;;;;;;18.00;14.50;;;;;17.54;81.36;101743.06;5032331;28;49328;-72
2021/10/19 03:06:12;;;;;;;;;16.00;15.00;;;;;17.54;81.47;101737.75;5033612;28;45468;-72
2021/10/19 03:08:37;;;;;;;;;16.00;14.25;;;;;17.54;81.22;101735.97;5026182;28;45354;-72
2021/10/19 03:11:03;;;;;;;;;15.75;15.75;;;;;17.55;81.30;101740.34;5028549;28;45420;-72
2021/10/19 03:13:29;;;;;;;;;15.75;14.75;;;;;17.52;81.43;101743.16;5033581;28;45410;-72
2021/10/19 03:15:55;;;;;;;;;15.50;14.00;;;;;17.55;81.50;101739.47;5032017;28;45316;-72
2021/10/19 03:18:21;;;;;;;;;17.00;16.25;;;;;17.56;81.37;101735.88;5034098;28;45549;-72
2021/10/19 03:20:47;;;;;;;;;14.25;13.00;;;;;17.51;81.30;101733.47;5033542;28;46145;-72
2021/10/19 03:23:12;;;;;;;;;12.25;11.25;;;;;17.53;81.50;101747.53;5031481;28;45555;-72
2021/10/19 03:25:37;;;;;;;;;16.00;14.75;;;;;17.53;81.48;101750.19;5030371;28;45661;-72
2021/10/19 03:28:03;;;;;;;;;14.25;13.00;;;;;17.53;81.26;101754.63;5033621;28;45434;-72
2021/10/19 03:30:28;;;;;;;;;15.00;13.75;;;;;17.49;80.99;101740.69;5025916;28;46018;-72
2021/10/19 03:32:53;;;;;;;;;15.00;12.00;;;;;17.57;81.37;101746.41;5034994;28;45466;-72
2021/10/19 03:35:19;;;;;;;;;16.75;13.75;;;;;17.59;81.19;101746.31;5042484;28;51098;-72
2021/10/19 03:37:44;;;;;;;;;15.50;11.75;;;;;17.57;81.17;101748.22;5033340;28;45724;-72
2021/10/19 03:40:10;;;;;;;;;20.50;16.00;;;;;17.59;81.19;101754.28;5033326;28;46968;-72
2021/10/19 03:42:40;;;;;;;;;17.25;13.50;;;;;17.58;80.97;101755.25;5034248;28;45855;-72
2021/10/19 03:45:06;;;;;;;;;13.75;13.50;;;;;17.54;81.40;101735.97;5033417;28;45633;-72
2021/10/19 03:47:31;;;;;;;;;17.75;15.00;;;;;17.57;80.75;101737.59;5034102;28;45490;-72
2021/10/19 03:49:56;;;;;;;;;12.25;12.25;;;;;17.52;81.08;101731.66;5032873;28;62777;-72
2021/10/19 03:52:22;;;;;;;;;15.75;14.00;;;;;17.55;80.91;101753.63;5033118;28;47101;-72
2021/10/19 03:54:47;;;;;;;;;16.25;13.00;;;;;17.54;81.38;101749.25;5033966;28;45475;-72
2021/10/19 03:57:12;;;;;;;;;18.25;13.25;;;;;17.54;80.72;101759.00;5033673;28;45327;-72
2021/10/19 03:59:38;;;;;;;;;16.75;15.50;;;;;17.52;81.41;101768.88;5032499;28;53109;-72
2021/10/19 04:02:03;;;;;;;;;15.75;14.25;;;;;17.50;81.31;101768.13;5032900;28;53083;-72
2021/10/19 04:04:29;;;;;;;;;19.00;14.75;;;;;17.49;81.07;101759.28;5032852;28;45535;-72
2021/10/19 04:06:54;;;;;;;;;21.75;16.50;;;;;17.50;81.29;101754.84;5034556;28;45482;-72
2021/10/19 04:09:20;;;;;;;;;15.50;15.00;;;;;17.50;81.59;101763.66;5033749;28;45976;-72
2021/10/19 04:11:45;;;;;;;;;15.75;15.75;;;;;17.52;81.46;101779.50;5031980;28;45466;-72
2021/10/19 04:14:11;;;;;;;;;17.50;15.00;;;;;17.51;80.95;101765.38;5033708;28;45343;-72
2021/10/19 04:16:37;;;;;;;;;17.00;15.50;;;;;17.50;81.02;101778.75;5032752;28;45622;-72
2021/10/19 04:19:03;;;;;;;;;14.25;14.25;;;;;17.52;81.48;101772.38;5033908;28;45394;-72
2021/10/19 04:21:28;;;;;;;;;17.25;13.75;;;;;17.48;81.30;101771.69;5032974;28;45262;-72
2021/10/19 04:23:53;;;;;;;;;16.00;14.25;;;;;17.53;81.21;101789.19;5028041;28;49888;-72
2021/10/19 04:26:19;;;;;;;;;16.25;14.25;;;;;17.51;81.31;101775.16;5032661;28;45427;-72
2021/10/19 04:28:45;;;;;;;;;15.25;12.00;;;;;17.55;81.09;101788.19;5040655;28;46055;-72
2021/10/19 04:31:12;;;;;;;;;15.75;15.50;;;;;17.56;81.36;101789.03;5030277;28;45259;-72
2021/10/19 04:33:37;;;;;;;;;17.00;15.50;;;;;17.56;80.95;101789.88;5031886;28;45492;-72
2021/10/19 04:36:04;;;;;;;;;17.75;15.25;;;;;17.54;81.19;101782.94;5033137;28;45402;-72
2021/10/19 04:38:31;;;;;;;;;15.00;13.00;;;;;17.55;81.31;101779.34;5033239;28;46196;-72
2021/10/19 04:40:57;;;;;;;;;13.75;12.50;;;;;17.52;81.17;101777.72;5035676;28;45562;-72
2021/10/19 04:43:22;;;;;;;;;20.00;17.00;;;;;17.56;81.24;101783.72;5016267;28;48985;-72
2021/10/19 04:45:47;;;;;;;;;18.00;15.00;;;;;17.55;80.99;101774.91;5035426;28;45348;-72
2021/10/19 04:48:14;;;;;;;;;16.50;14.00;;;;;17.55;80.86;101784.66;5035753;28;47562;-72
2021/10/19 04:50:40;;;;;;;;;16.75;12.75;;;;;17.49;81.00;101772.59;5018739;28;45650;-72
2021/10/19 04:53:05;;;;;;;;;15.25;15.25;;;;;17.55;81.29;101784.66;5036424;28;45479;-72
2021/10/19 04:55:31;;;;;;;;;14.00;11.50;;;;;17.54;81.22;101781.16;5011223;28;45511;-72
2021/10/19 04:57:56;;;;;;;;;14.75;13.25;;;;;17.52;80.74;101785.69;5036379;28;45528;-72
2021/10/19 05:00:21;;;;;;;;;14.50;14.50;;;;;17.48;81.16;101792.97;5036749;28;45266;-72
2021/10/19 05:02:48;;;;;;;;;15.25;14.50;;;;;17.47;80.93;101787.72;5036028;28;45785;-72
2021/10/19 05:05:16;;;;;;;;;20.50;16.00;;;;;17.45;81.35;101793.16;5036700;28;45934;-72
2021/10/19 05:07:41;;;;;;;;;16.50;13.50;;;;;17.36;81.24;101775.03;5036549;28;45478;-72
2021/10/19 05:10:07;;;;;;;;;14.00;13.25;;;;;17.39;81.34;101780.19;5039408;28;45444;-72
2021/10/19 05:12:32;;;;;;;;;21.00;17.00;;;;;17.40;80.89;101784.56;5035457;28;47156;-72
2021/10/19 05:14:58;;;;;;;;;15.50;14.00;;;;;17.39;80.92;101782.00;5036885;28;45450;-72
2021/10/19 05:17:24;;;;;;;;;14.75;14.50;;;;;17.35;80.95;101783.97;5050791;28;48131;-72
2021/10/19 05:19:49;;;;;;;;;17.75;15.75;;;;;17.31;81.46;101779.75;5036633;28;45627;-72
2021/10/19 05:22:15;;;;;;;;;17.00;14.50;;;;;17.30;80.98;101786.00;5036038;28;45375;-72
2021/10/19 05:24:40;;;;;;;;;15.25;14.00;;;;;17.25;81.23;101779.22;5035982;28;45473;-72
2021/10/19 05:27:06;;;;;;;;;16.75;15.50;;;;;17.30;80.72;101770.06;5035714;28;45342;-72
2021/10/19 05:29:32;;;;;;;;;15.00;14.25;;;;;17.31;81.14;101774.44;5034518;28;45397;-72
2021/10/19 05:31:57;;;;;;;;;16.00;13.75;;;;;17.32;80.68;101778.78;5035506;28;45610;-72
2021/10/19 05:34:22;;;;;;;;;16.00;15.00;;;;;17.34;81.15;101779.59;5036157;28;45568;-72
2021/10/19 05:36:48;;;;;;;;;14.75;14.25;;;;;17.35;80.67;101783.97;5034713;28;46251;-73
2021/10/19 05:39:15;;;;;;;;;17.50;14.25;;;;;17.36;80.64;101777.69;5031690;28;46289;-72
2021/10/19 05:41:41;;;;;;;;;17.75;13.75;;;;;17.37;81.26;101781.22;5033245;28;45597;-72
2021/10/19 05:44:07;;;;;;;;;15.50;15.00;;;;;17.37;80.98;101773.25;5034791;28;45420;-72
2021/10/19 05:46:33;;;;;;;;;16.75;16.75;;;;;17.30;80.89;101762.09;5033290;28;47235;-73
2021/10/19 05:48:58;;;;;;;;;17.75;17.25;;;;;17.32;80.40;101760.19;5034761;28;45567;-72
2021/10/19 05:51:24;;;;;;;;;21.00;17.50;;;;;17.30;80.29;101758.59;5035557;28;45456;-71
2021/10/19 05:53:49;;;;;;;;;18.75;14.75;;;;;17.30;80.35;101762.09;5033836;28;45618;-73
2021/10/19 05:56:14;;;;;;;;;17.50;14.75;;;;;17.33;80.30;101761.06;5034703;28;45470;-72
2021/10/19 05:58:40;;;;;;;;;16.00;15.75;;;;;17.31;80.53;101766.47;5017789;28;45395;-73
2021/10/19 06:01:05;;;;;;;;;20.00;15.25;;;;;17.29;80.36;101764.84;5036448;28;45407;-73
2021/10/19 06:03:30;;;;;;;;;9.50;9.50;;;;;17.23;79.75;101763.38;5033607;28;45474;-73
2021/10/19 06:05:56;;;;;;;;;15.50;14.50;;;;;17.21;79.84;101773.22;5034110;28;45449;-73
2021/10/19 06:08:22;;;;;;;;;19.25;18.00;;;;;17.16;80.20;101773.47;5035099;28;45460;-73
2021/10/19 06:10:47;;;;;;;;;17.25;15.25;;;;;17.14;80.24;101767.38;5034578;28;45611;-73
2021/10/19 06:13:13;;;;;;;;;13.75;13.75;;;;;17.07;80.31;101768.66;5033390;28;45642;-72
2021/10/19 06:15:40;;;;;;;;;15.75;15.00;;;;;17.03;80.59;101769.75;5033949;28;46099;-73
2021/10/19 06:18:06;;;;;;;;;20.75;16.75;;;;;16.98;80.53;101774.47;5032818;28;45545;-73
2021/10/19 06:20:32;;;;;;;;;18.75;17.50;;;;;17.00;80.66;101777.03;5033677;28;45514;-73
2021/10/19 06:22:57;;;;;;;;;17.00;16.00;;;;;16.97;80.46;101780.72;5032860;28;45416;-73
2021/10/19 06:25:23;;;;;;;;;21.75;16.25;;;;;16.96;80.74;101784.28;5015830;28;46120;-73
2021/10/19 06:27:48;;;;;;;;;17.00;15.25;;;;;16.95;81.00;101787.88;5035597;28;45314;-73
2021/10/19 06:30:13;;;;;;;;;18.75;14.75;;;;;16.90;81.01;101777.50;5033530;28;45250;-73
2021/10/19 06:32:40;;;;;;;;;16.50;15.25;;;;;16.90;81.04;101785.47;5014414;28;45415;-73
2021/10/19 06:35:08;;;;;;;;;18.00;16.00;;;;;16.92;80.52;101788.94;5034546;28;47043;-73
2021/10/19 06:37:33;;;;;;;;;24.00;17.50;;;;;16.85;81.10;101776.03;5034458;28;45904;-73
2021/10/19 06:39:59;;;;;;;;;20.50;17.00;;;;;16.82;80.38;101769.09;5035949;28;45416;-73
2021/10/19 06:42:24;;;;;;;;;20.50;18.75;;;;;16.90;80.88;101795.25;5035470;28;45865;-73
2021/10/19 06:44:49;;;;;;;;;19.25;16.50;;;;;16.91;80.91;101783.66;5035116;28;45561;-73
2021/10/19 06:47:15;;;;;;;;;19.00;17.75;;;;;16.92;80.49;101790.72;5034028;28;49984;-73
2021/10/19 06:49:40;;;;;;;;;24.75;18.75;;;;;16.92;80.70;101794.25;5034901;28;45593;-73
2021/10/19 06:52:05;;;;;;;;;16.25;16.25;;;;;16.95;80.44;101793.19;5033481;28;45552;-73
2021/10/19 06:54:31;;;;;;;;;17.50;16.00;;;;;17.01;80.37;101795.53;5048565;28;46954;-73
2021/10/19 06:56:56;;;;;;;;;19.75;16.00;;;;;17.08;80.75;101794.28;5034607;28;46198;-73
2021/10/19 06:59:21;;;;;;;;;16.25;15.00;;;;;17.17;80.42;101800.88;5034920;28;45434;-73
2021/10/19 07:01:47;;;;;;;;;25.00;19.75;;;;;17.25;80.62;101797.81;5034021;28;47719;-73
2021/10/19 07:04:12;;;;;;;;;17.75;16.50;;;;;17.38;79.99;101796.19;5033865;28;46194;-71
2021/10/19 07:06:37;;;;;;;;;20.50;17.25;;;;;17.50;79.59;101806.19;5033910;28;55608;-71
2021/10/19 07:09:03;;;;;;;;;24.50;19.00;;;;;17.62;79.38;101799.31;5033410;28;45707;-72
2021/10/19 07:11:30;;;;;;;;;20.00;15.50;;;;;17.89;78.91;101796.94;5033044;28;45687;-72
2021/10/19 07:13:55;;;;;;;;;18.75;17.00;;;;;17.94;78.33;101794.88;5034943;28;46090;-72
2021/10/19 07:16:20;;;;;;;;;17.00;16.00;;;;;18.49;78.79;101797.00;5034190;28;45488;-72
2021/10/19 07:18:46;;;;;;;;;18.75;17.50;;;;;19.45;77.59;101800.91;5034437;28;45428;-72
2021/10/19 07:21:11;;;;;;;;;18.25;15.50;;;;;20.24;75.59;101794.91;5034550;28;45539;-72
2021/10/19 07:23:36;;;;;;;;;18.00;16.25;;;;;20.85;73.76;101793.44;5033568;28;58826;-72
2021/10/19 07:26:02;;;;;;;;;19.25;19.25;;;;;21.22;71.96;101786.34;5033374;28;45719;-72
2021/10/19 07:28:27;;;;;;;;;16.25;16.25;;;;;21.53;71.22;101805.59;5033602;28;45670;-72
2021/10/19 07:30:52;;;;;;;;;17.25;16.50;;;;;21.74;70.75;101792.47;5049907;28;49522;-73
2021/10/19 07:33:18;;;;;;;;;22.25;17.00;;;;;22.30;70.48;101801.69;5033698;28;54390;-72
2021/10/19 07:35:44;;;;;;;;;21.00;16.25;;;;;23.05;69.08;101795.03;5037931;28;45412;-72
2021/10/19 07:38:11;;;;;;;;;15.50;13.75;;;;;23.72;67.21;101786.97;5035075;28;45369;-72
2021/10/19 07:40:37;;;;;;;;;16.75;14.00;;;;;24.67;65.82;101811.28;5036323;28;45379;-72
2021/10/19 07:43:02;;;;;;;;;11.50;10.25;;;;;25.96;63.78;101806.19;5048129;28;46259;-72
2021/10/19 07:45:29;;;;;;;;;17.50;14.50;;;;;27.20;61.25;101798.13;5036672;28;45408;-72
2021/10/19 07:47:57;;;;;;;;;17.00;13.75;;;;;28.31;59.59;101796.97;5041862;28;45371;-72
2021/10/19 07:50:23;;;;;;;;;15.25;14.50;;;;;29.20;57.44;101803.22;5043438;28;45751;-72
2021/10/19 07:52:50;;;;;;;;;14.00;12.50;;;;;30.14;55.77;101806.59;5034846;28;46093;-72
2021/10/19 07:55:15;;;;;;;;;13.00;12.00;;;;;31.19;52.27;101807.50;5035747;28;45822;-72
2021/10/19 07:57:45;;;;;;;;;15.50;12.00;;;;;32.16;51.21;101816.19;5047964;28;45518;-76
2021/10/19 08:00:11;;;;;;;;;18.00;14.00;;;;;33.09;48.97;101809.56;5045151;28;45299;-72
2021/10/19 08:02:41;;;;;;;;;15.50;13.25;;;;;33.84;47.06;101808.44;5039022;28;47514;-72
2021/10/19 08:05:12;;;;;;;;;10.50;10.50;;;;;34.17;45.38;101810.69;5037730;28;45492;-72
2021/10/19 08:07:37;;;;;;;;;12.50;11.75;;;;;34.83;44.32;101810.41;5026715;28;45562;-72
2021/10/19 08:10:03;;;;;;;;;11.75;10.50;;;;;35.21;42.85;101810.84;5038065;28;45606;-72
2021/10/19 08:12:28;;;;;;;;;12.50;11.25;;;;;35.43;41.54;101817.88;5032386;28;46379;-72
2021/10/19 08:14:56;;;;;;;;;15.00;13.25;;;;;35.02;40.06;101805.06;5015483;28;46517;-73
2021/10/19 08:17:21;;;;;;;;;13.75;12.50;;;;;35.28;40.51;101819.91;5036747;28;45407;-73
2021/10/19 08:19:46;;;;;;;;;12.00;10.75;;;;;35.61;39.71;101825.59;5036888;28;45577;-72
2021/10/19 08:22:13;;;;;;;;;10.50;10.50;;;;;35.85;39.21;101837.00;5035791;28;53133;-72
2021/10/19 08:24:38;;;;;;;;;11.00;10.25;;;;;36.21;37.09;101832.03;5037414;28;45577;-73
2021/10/19 08:27:03;;;;;;;;;10.25;10.25;;;;;35.75;37.56;101834.66;5036670;28;45387;-73
2021/10/19 08:29:29;;;;;;;;;13.25;11.75;;;;;36.01;37.35;101822.97;5037167;28;45539;-73
2021/10/19 08:31:54;;;;;;;;;10.00;9.00;;;;;36.33;37.89;101843.19;5036014;28;46115;-73
2021/10/19 08:34:19;;;;;;;;;9.25;9.25;;;;;36.48;36.16;101843.03;5035928;28;53834;-73
2021/10/19 08:36:44;;;;;;;;;11.75;10.00;;;;;37.14;35.32;101847.63;5037190;28;45454;-73
2021/10/19 08:39:10;;;;;;;;;9.25;4.00;;;;;37.75;33.40;101845.31;5037281;28;45640;-73
2021/10/19 08:41:37;;;;;;;;;6.75;6.25;;;;;38.35;33.04;101853.19;5036845;28;45362;-72
2021/10/19 08:44:03;;;;;;;;;7.75;7.25;;;;;39.01;33.03;101840.78;5037185;28;45253;-73
2021/10/19 08:46:28;;;;;;;;;10.50;9.75;;;;;39.64;31.44;101848.75;5036143;28;45502;-73
2021/10/19 08:48:54;;;;;;;;;10.25;10.25;;;;;40.23;31.20;101852.53;5037348;28;45451;-73
2021/10/19 08:51:19;;;;;;;;;11.00;11.00;;;;;40.77;30.22;101849.72;5035456;28;45530;-73
2021/10/19 08:53:45;;;;;;;;;12.50;11.00;;;;;41.35;29.63;101848.84;5036129;28;45694;-73
2021/10/19 08:56:10;;;;;;;;;10.50;10.00;;;;;41.85;29.28;101854.59;5036088;28;45460;-73
2021/10/19 08:58:38;;;;;;;;;8.75;8.75;;;;;42.13;27.79;101850.09;5036786;28;45418;-73
2021/10/19 09:01:10;;;;;;;;;10.50;8.25;;;;;42.47;27.76;101860.13;5032813;28;45366;-73
2021/10/19 09:03:48;;;;;;;;;12.50;8.50;;;;;43.01;26.44;101851.28;5036520;28;45617;-73
2021/10/19 09:06:14;;;;;;;;;11.00;9.00;;;;;42.59;26.64;101857.25;5035560;28;45362;-73
2021/10/19 09:08:44;;;;;;;;;9.50;7.75;;;;;42.52;26.83;101853.00;5036301;28;45449;-73
2021/10/19 09:11:14;;;;;;;;;8.75;8.75;;;;;42.96;27.15;101853.94;5036184;28;45537;-73
2021/10/19 09:13:51;;;;;;;;;11.25;11.25;;;;;43.51;26.41;101844.75;5036602;28;45577;-73
2021/10/19 09:16:16;;;;;;;;;9.75;8.00;;;;;44.00;25.78;101845.53;5034855;28;45530;-73
2021/10/19 09:18:41;;;;;;;;;8.25;7.50;;;;;44.52;25.39;101833.78;5036448;28;45480;-73
2021/10/19 09:21:08;;;;;;;;;7.75;7.75;;;;;45.16;24.66;101852.25;5035474;28;53155;-73
2021/10/19 09:23:34;;;;;;;;;12.00;10.00;;;;;45.39;24.13;101855.69;5035273;28;45543;-73
2021/10/19 09:26:01;;;;;;;;;10.00;10.00;;;;;45.41;23.99;101845.97;5035932;28;45762;-73
2021/10/19 09:28:35;;;;;;;;;8.75;8.75;;;;;45.49;23.62;101841.84;5036444;28;45746;-73
2021/10/19 09:31:01;;;;;;;;;13.75;11.00;;;;;45.06;23.24;101843.03;5035480;28;45473;-73
2021/10/19 09:33:26;;;;;;;;;11.75;9.75;;;;;44.82;24.17;101835.13;5035675;28;45474;-73
2021/10/19 09:35:55;;;;;;;;;10.25;9.50;;;;;44.58;23.53;101845.75;5018050;28;45505;-74
2021/10/19 09:38:21;;;;;;;;;12.75;12.25;;;;;43.89;23.88;101837.41;5032265;28;45439;-74
2021/10/19 09:40:49;;;;;;;;;10.50;10.50;;;;;43.53;24.63;101845.31;5035449;28;45404;-73
2021/10/19 09:43:17;;;;;;;;;13.75;11.00;;;;;43.17;24.74;101839.31;5035778;28;45613;-73
2021/10/19 09:45:52;;;;;;;;;13.25;11.75;;;;;42.47;25.40;101828.88;5035641;28;45435;-73
2021/10/19 09:48:20;;;;;;;;;11.50;10.00;;;;;42.20;25.41;101848.06;5034126;28;45396;-73
2021/10/19 09:50:47;;;;;;;;;11.50;10.25;;;;;41.66;26.01;101842.03;5034567;28;47791;-73
2021/10/19 09:53:15;;;;;;;;;9.50;8.25;;;;;41.12;26.36;101844.22;5035650;28;45586;-73
2021/10/19 09:55:42;;;;;;;;;8.50;8.00;;;;;40.68;26.24;101835.50;5035372;28;45760;-74
2021/10/19 09:58:08;;;;;;;;;8.00;8.00;;;;;40.42;26.80;101823.84;5035877;28;45554;-74
2021/10/19 10:00:34;;;;;;;;;6.75;6.00;;;;;40.26;26.80;101830.06;5034636;28;46010;-74
2021/10/19 10:03:03;;;;;;;;;9.50;9.25;;;;;39.95;26.82;101847.66;5034803;28;45384;-74
2021/10/19 10:05:29;;;;;;;;;9.00;8.00;;;;;39.62;27.46;101848.94;5035605;28;45501;-73
2021/10/19 10:07:56;;;;;;;;;9.25;9.25;;;;;39.32;27.24;101846.16;5035772;28;45498;-74
2021/10/19 10:10:23;;;;;;;;;9.25;8.75;;;;;38.70;28.51;101842.53;5034777;28;45791;-74
2021/10/19 10:13:02;;;;;;;;;11.00;9.00;;;;;37.83;28.50;101834.09;5035682;28;45389;-74
2021/10/19 10:15:33;;;;;;;;;10.75;10.75;;;;;37.33;28.96;101838.50;5035151;28;45498;-74
2021/10/19 10:18:05;;;;;;;;;9.25;8.50;;;;;36.65;29.72;101833.34;5035545;28;45446;-74
2021/10/19 10:20:37;;;;;;;;;5.00;5.00;;;;;35.96;30.05;101845.47;5034626;28;46366;-73
2021/10/19 10:23:19;;;;;;;;;12.00;9.75;;;;;35.33;30.91;101836.56;5034903;28;45460;-73
2021/10/19 10:25:47;;;;;;;;;14.50;10.75;;;;;35.08;31.42;101838.09;5035548;28;45580;-73
2021/10/19 10:28:26;;;;;;;;;8.25;7.50;;;;;34.68;31.63;101832.34;5035283;28;45323;-74
2021/10/19 10:30:53;;;;;;;;;8.25;8.25;;;;;34.44;32.09;101828.13;5033862;28;46182;-73
2021/10/19 10:33:40;;;;;;;;;10.50;9.25;;;;;34.32;32.31;101833.28;5034895;28;45223;-73
2021/10/19 10:36:07;;;;;;;;;14.50;11.75;;;;;34.24;32.33;101833.41;5035325;28;45506;-72
2021/10/19 10:38:34;;;;;;;;;11.25;11.25;;;;;33.95;32.57;101832.50;5033599;28;45503;-73
2021/10/19 10:41:14;;;;;;;;;9.75;9.75;;;;;33.81;32.59;101829.78;5033189;28;46115;-73
2021/10/19 10:43:41;;;;;;;;;9.50;8.75;;;;;33.50;32.83;101837.16;5019850;28;45320;-72
2021/10/19 10:46:20;;;;;;;;;11.50;11.50;;;;;33.32;33.52;101823.09;5035837;28;45515;-72
2021/10/19 10:48:47;;;;;;;;;11.75;10.25;;;;;33.21;33.40;101826.28;5033773;28;45380;-72
2021/10/19 10:51:23;;;;;;;;;10.50;10.50;;;;;33.09;34.21;101811.44;5034942;28;45415;-72
2021/10/19 10:53:49;;;;;;;;;11.50;9.50;;;;;33.04;33.78;101806.53;5034573;28;45292;-72
2021/10/19 10:56:15;;;;;;;;;13.25;12.00;;;;;32.75;34.07;101798.34;5016611;28;45476;-72
2021/10/19 10:58:42;;;;;;;;;9.00;7.75;;;;;32.44;34.36;101802.88;5035381;28;45244;-75
2021/10/19 11:01:28;;;;;;;;;12.00;9.75;;;;;31.95;34.25;101797.81;5035254;28;45515;-74
2021/10/19 11:04:05;;;;;;;;;10.00;9.50;;;;;31.46;35.79;101797.22;5033264;28;45462;-74
2021/10/19 11:06:31;;;;;;;;;10.25;10.25;;;;;31.25;35.67;101803.22;5035075;28;45376;-73
2021/10/19 11:09:04;;;;;;;;;15.50;13.00;;;;;30.97;36.42;101791.97;5033724;28;45395;-73